Time;durP1;ratioP1;P1;durP2;ratioP2;P2;SDS_P1;SDS_P2;PMS_P1;PMS_P2;Temp;Humidity;BMP_temperature;BMP_pressure;BME280_temperature;BME280_humidity;BME280_pressure;Samples;Min_cycle;Max_cycle;Signal;HPM_P1;HPM_P2
2022/12/29 00:01:37;;;;;;;3.00;2.10;;;9.10;1.00;;;;;;5096481;28;20465;-38
2022/12/29 00:04:03;;;;;;;2.00;1.60;;;9.10;1.00;;;;;;5117301;28;20168;-40
2022/12/29 00:06:29;;;;;;;2.40;2.00;;;9.10;1.00;;;;;;5098323;28;20414;-38
2022/12/29 00:08:55;;;;;;;3.60;2.27;;;9.20;1.00;;;;;;5117937;28;20412;-39
2022/12/29 00:11:26;;;;;;;2.90;1.70;;;9.20;1.00;;;;;;5119952;28;20180;-37
2022/12/29 00:16:37;;;;;;;3.30;2.10;;;9.20;99.90;;;;;;5121239;28;20436;-40
2022/12/29 00:19:04;;;;;;;2.67;2.27;;;9.30;99.90;;;;;;5121227;28;20417;-38
2022/12/29 00:35:56;;;;;;;2.80;2.20;;;9.40;99.90;;;;;;5118323;28;20409;-38
2022/12/29 00:44:05;;;;;;;3.70;2.20;;;9.50;99.90;;;;;;5119136;28;20425;-38
2022/12/29 00:46:34;;;;;;;3.10;2.10;;;9.50;99.90;;;;;;5119834;28;20493;-39
2022/12/29 00:51:45;;;;;;;2.67;2.13;;;9.50;99.90;;;;;;5119935;28;20447;-38
2022/12/29 00:54:11;;;;;;;5.30;2.20;;;9.50;99.90;;;;;;5120167;28;20816;-37
2022/12/29 00:56:36;;;;;;;2.80;1.80;;;9.50;99.90;;;;;;5120610;28;20441;-39
2022/12/29 00:59:04;;;;;;;3.33;1.93;;;9.50;99.90;;;;;;5120070;28;20418;-38
2022/12/29 01:01:30;;;;;;;2.27;1.50;;;9.50;99.90;;;;;;5100972;28;20207;-38
2022/12/29 01:03:55;;;;;;;2.57;1.77;;;9.50;99.90;;;;;;5119426;28;20422;-38
2022/12/29 01:06:21;;;;;;;2.87;2.27;;;9.60;99.90;;;;;;5117904;28;20543;-37
2022/12/29 01:10:09;;;;;;;2.63;1.33;;;9.50;99.90;;;;;;5118460;28;20666;-38
2022/12/29 01:11:32;;;;;;;3.20;1.93;;;9.50;99.90;;;;;;5118346;28;20195;-38
2022/12/29 01:13:58;;;;;;;2.37;1.60;;;9.50;99.90;;;;;;5117080;28;20417;-38
2022/12/29 01:16:23;;;;;;;2.90;1.80;;;9.50;99.90;;;;;;5119023;28;20258;-38
2022/12/29 01:18:49;;;;;;;6.00;2.53;;;9.50;99.90;;;;;;5099819;28;20180;-38
2022/12/29 01:21:15;;;;;;;2.90;1.93;;;9.60;99.90;;;;;;5117317;28;20246;-37
2022/12/29 01:23:40;;;;;;;3.13;2.10;;;9.60;99.90;;;;;;5117371;28;20388;-38
2022/12/29 01:26:14;;;;;;;2.60;1.50;;;9.60;99.90;;;;;;5116105;28;20171;-39
2022/12/29 01:28:41;;;;;;;3.20;2.00;;;9.60;99.90;;;;;;5117244;28;20187;-38
2022/12/29 01:31:07;;;;;;;2.40;1.90;;;9.60;99.90;;;;;;5099270;28;20413;-37
2022/12/29 01:33:33;;;;;;;2.10;1.60;;;9.60;99.90;;;;;;5117047;28;20445;-37
2022/12/29 01:36:03;;;;;;;3.17;1.93;;;9.60;99.90;;;;;;5116476;28;20808;-38
2022/12/29 01:38:29;;;;;;;3.47;1.50;;;9.60;99.90;;;;;;5116755;28;20212;-38
2022/12/29 01:40:54;;;;;;;2.90;1.67;;;9.70;99.90;;;;;;5098105;28;20488;-38
2022/12/29 01:43:20;;;;;;;5.00;1.70;;;9.70;99.90;;;;;;5115832;28;20172;-36
2022/12/29 01:45:51;;;;;;;2.87;1.93;;;9.70;99.90;;;;;;5115953;28;20183;-37
2022/12/29 01:48:17;;;;;;;4.47;1.93;;;9.70;99.60;;;;;;5096300;28;20183;-37
2022/12/29 01:50:53;;;;;;;3.47;2.10;;;9.80;56.80;;;;;;5116342;28;20717;-36
2022/12/29 01:53:24;;;;;;;4.70;1.80;;;9.80;56.40;;;;;;5117411;28;20432;-37
2022/12/29 01:55:53;;;;;;;4.50;1.80;;;9.80;30.00;;;;;;5117951;28;20409;-37
2022/12/29 01:58:20;;;;;;;4.07;1.70;;;9.80;27.20;;;;;;5118399;28;20437;-37
2022/12/29 02:00:46;;;;;;;1.80;1.40;;;9.80;17.30;;;;;;5117929;28;20865;-36
2022/12/29 02:03:12;;;;;;;1.90;1.70;;;9.80;8.80;;;;;;5116582;28;20762;-37
2022/12/29 02:05:41;;;;;;;4.27;2.17;;;9.90;1.00;;;;;;5098376;28;20495;-37
2022/12/29 02:08:08;;;;;;;2.43;1.50;;;9.90;1.00;;;;;;5116256;28;20432;-36
2022/12/29 02:10:35;;;;;;;2.53;2.17;;;9.90;1.00;;;;;;5116215;28;20430;-37
2022/12/29 02:13:01;;;;;;;1.87;1.60;;;9.90;1.00;;;;;;5097156;28;20437;-37
2022/12/29 02:16:02;;;;;;;1.97;1.67;;;9.90;1.00;;;;;;5115611;28;20457;-36
2022/12/29 02:18:37;;;;;;;1.90;1.27;;;10.00;1.00;;;;;;5097893;28;20292;-37
2022/12/29 02:21:12;;;;;;;2.23;1.33;;;10.00;1.00;;;;;;5116312;28;20936;-37
2022/12/29 02:24:05;;;;;;;2.57;1.90;;;10.00;1.00;;;;;;5116366;28;20440;-36
2022/12/29 02:27:03;;;;;;;4.63;1.83;;;10.00;1.00;;;;;;5096726;28;20512;-37
2022/12/29 02:30:00;;;;;;;4.60;1.70;;;10.00;1.00;;;;;;5090658;28;20419;-37
2022/12/29 02:32:45;;;;;;;2.80;1.87;;;10.00;1.00;;;;;;5079743;28;20520;-37
2022/12/29 02:35:37;;;;;;;3.43;1.93;;;10.10;1.00;;;;;;5097407;28;20448;-37
2022/12/29 02:38:24;;;;;;;4.33;1.43;;;10.10;1.00;;;;;;5115031;28;20437;-36
2022/12/29 02:41:31;;;;;;;2.50;1.47;;;10.10;1.00;;;;;;5115559;28;20557;-37
2022/12/29 02:44:02;;;;;;;2.23;1.80;;;10.10;1.00;;;;;;5087050;28;20824;-36
2022/12/29 02:46:28;;;;;;;3.50;2.10;;;10.10;1.00;;;;;;5117508;28;20409;-36
2022/12/29 02:49:09;;;;;;;3.90;1.47;;;10.20;1.00;;;;;;5117280;28;20409;-36
2022/12/29 02:54:58;;;;;;;3.17;1.63;;;10.20;1.00;;;;;;5060032;28;20416;-36
2022/12/29 02:57:26;;;;;;;2.30;1.47;;;10.30;1.00;;;;;;5116487;28;20437;-36
2022/12/29 03:00:03;;;;;;;3.80;1.60;;;10.30;1.00;;;;;;5116895;28;20444;-36
2022/12/29 03:02:50;;;;;;;1.53;1.03;;;10.30;1.00;;;;;;5116945;28;20747;-37
2022/12/29 03:05:38;;;;;;;2.43;1.33;;;10.30;1.00;;;;;;5116816;28;20410;-36
2022/12/29 03:08:22;;;;;;;1.70;1.53;;;10.30;1.00;;;;;;5117467;28;20417;-35
2022/12/29 03:11:00;;;;;;;3.10;1.80;;;10.40;1.00;;;;;;5117146;28;20402;-37
2022/12/29 03:16:27;;;;;;;2.37;1.57;;;10.40;1.00;;;;;;5116600;28;20405;-36
2022/12/29 03:19:20;;;;;;;2.53;1.67;;;10.50;1.00;;;;;;5117553;28;20421;-37
2022/12/29 03:24:40;;;;;;;2.50;1.40;;;10.50;1.00;;;;;;5102071;28;20432;-37
2022/12/29 03:27:09;;;;;;;1.47;1.30;;;10.60;1.00;;;;;;5099506;28;20709;-37
2022/12/29 03:29:39;;;;;;;4.43;1.80;;;10.60;1.00;;;;;;5099083;28;20417;-37
2022/12/29 03:32:06;;;;;;;1.70;1.50;;;10.60;1.00;;;;;;5099438;28;20724;-36
2022/12/29 03:34:33;;;;;;;2.23;1.27;;;10.60;1.00;;;;;;5116691;28;20408;-36
2022/12/29 03:37:15;;;;;;;1.73;1.40;;;10.60;1.00;;;;;;5101096;28;20429;-37
2022/12/29 03:39:41;;;;;;;3.20;1.73;;;10.70;1.00;;;;;;5102857;28;20790;-36
2022/12/29 03:42:16;;;;;;;2.50;1.67;;;10.70;1.00;;;;;;5120261;28;20479;-36
2022/12/29 03:44:43;;;;;;;3.87;1.80;;;10.70;1.00;;;;;;5103596;28;20392;-36
2022/12/29 03:47:11;;;;;;;5.53;1.67;;;10.70;1.00;;;;;;5120538;28;20433;-38
2022/12/29 03:49:37;;;;;;;2.53;1.47;;;10.70;1.00;;;;;;5120536;28;20413;-37
2022/12/29 03:52:03;;;;;;;3.83;1.90;;;10.70;1.00;;;;;;5121477;28;20569;-37
2022/12/29 03:54:29;;;;;;;2.20;1.23;;;10.70;1.00;;;;;;5121446;28;20199;-35
2022/12/29 03:56:55;;;;;;;1.80;1.50;;;10.70;1.00;;;;;;5118099;28;20452;-37
2022/12/29 03:59:21;;;;;;;5.40;1.53;;;10.70;1.00;;;;;;5117821;28;20409;-36
2022/12/29 04:01:46;;;;;;;2.97;1.37;;;10.70;1.00;;;;;;5099471;28;20219;-37
2022/12/29 04:04:12;;;;;;;3.03;1.30;;;10.70;1.00;;;;;;5116753;28;20565;-36
2022/12/29 04:06:38;;;;;;;2.40;1.50;;;10.70;1.00;;;;;;5117086;28;20180;-37
2022/12/29 04:09:04;;;;;;;2.50;1.50;;;10.70;1.00;;;;;;5098879;28;20405;-36
2022/12/29 04:11:30;;;;;;;2.53;1.50;;;10.60;1.00;;;;;;5117414;28;20195;-37
2022/12/29 04:13:55;;;;;;;2.47;1.77;;;10.60;1.00;;;;;;5099699;28;20405;-37
2022/12/29 04:16:21;;;;;;;1.73;1.33;;;10.60;1.00;;;;;;5118958;28;20451;-38
2022/12/29 04:18:47;;;;;;;2.87;1.50;;;10.60;1.00;;;;;;5119183;28;20569;-36
2022/12/29 04:21:12;;;;;;;2.30;1.97;;;10.60;1.00;;;;;;5117254;28;20283;-37
2022/12/29 04:23:39;;;;;;;3.60;1.80;;;10.60;4.40;;;;;;5119595;28;20176;-37
2022/12/29 04:26:09;;;;;;;2.30;1.70;;;10.50;48.90;;;;;;5119804;28;20176;-38
2022/12/29 04:28:35;;;;;;;2.30;1.57;;;10.50;99.90;;;;;;5120490;28;20421;-41
2022/12/29 04:31:01;;;;;;;2.00;1.30;;;10.50;99.90;;;;;;5120340;28;20405;-39
2022/12/29 04:33:27;;;;;;;2.30;1.80;;;10.50;99.90;;;;;;5120481;28;20432;-37
2022/12/29 04:35:53;;;;;;;4.10;2.00;;;10.50;99.90;;;;;;5120259;28;20406;-37
2022/12/29 04:38:20;;;;;;;2.43;1.77;;;10.50;99.90;;;;;;5120946;28;20266;-38
2022/12/29 04:40:46;;;;;;;2.50;1.53;;;10.50;99.90;;;;;;5118660;28;20920;-36
2022/12/29 04:43:12;;;;;;;2.97;1.70;;;10.50;99.90;;;;;;5119242;28;20455;-37
2022/12/29 04:45:47;;;;;;;2.60;1.80;;;10.50;99.90;;;;;;5118260;28;20471;-37
2022/12/29 04:48:13;;;;;;;2.40;1.50;;;10.50;1.00;;;;;;5117537;28;20494;-36
2022/12/29 04:50:40;;;;;;;2.90;1.83;;;10.50;99.90;;;;;;5118542;28;20414;-37
2022/12/29 04:53:06;;;;;;;2.27;1.90;;;10.60;1.00;;;;;;5118528;28;20502;-37
2022/12/29 04:55:32;;;;;;;3.07;1.97;;;10.50;99.90;;;;;;5119525;28;20413;-38
2022/12/29 04:58:07;;;;;;;2.43;2.00;;;10.50;1.00;;;;;;5119925;28;20470;-36
2022/12/29 05:00:33;;;;;;;5.50;1.90;;;10.50;1.00;;;;;;5118349;28;20492;-37
2022/12/29 05:02:59;;;;;;;3.70;1.73;;;10.50;1.00;;;;;;5120497;28;20436;-37
2022/12/29 05:05:24;;;;;;;3.03;1.57;;;10.50;1.00;;;;;;5117763;28;20163;-37
2022/12/29 05:07:50;;;;;;;2.37;1.93;;;10.50;1.00;;;;;;5116737;28;20601;-38
2022/12/29 05:10:16;;;;;;;2.80;1.60;;;10.50;1.00;;;;;;5116446;28;20190;-38
2022/12/29 05:12:42;;;;;;;4.80;1.53;;;10.50;1.00;;;;;;5115502;28;20180;-38
2022/12/29 05:15:09;;;;;;;3.23;2.03;;;10.50;1.00;;;;;;5115195;28;20481;-37
2022/12/29 05:17:35;;;;;;;4.23;2.27;;;10.50;1.00;;;;;;5115253;28;20463;-37
2022/12/29 05:20:01;;;;;;;2.47;1.60;;;10.50;1.00;;;;;;5116238;28;20401;-37
2022/12/29 05:22:27;;;;;;;3.23;2.30;;;10.50;1.00;;;;;;5116711;28;20555;-37
2022/12/29 05:24:53;;;;;;;2.40;1.90;;;10.50;1.00;;;;;;5116453;28;20507;-38
2022/12/29 05:27:19;;;;;;;2.97;1.60;;;10.40;1.00;;;;;;5115741;28;20598;-38
2022/12/29 05:29:45;;;;;;;4.40;2.27;;;10.40;1.00;;;;;;5119439;28;20441;-37
2022/12/29 05:32:10;;;;;;;2.30;1.90;;;10.40;1.00;;;;;;5119130;28;20195;-37
2022/12/29 05:34:36;;;;;;;4.20;2.30;;;10.40;1.00;;;;;;5116915;28;20520;-37
2022/12/29 05:37:02;;;;;;;2.70;2.20;;;10.40;1.00;;;;;;5117472;28;20601;-37
2022/12/29 05:39:28;;;;;;;3.60;2.37;;;10.40;1.00;;;;;;5118041;28;20180;-39
2022/12/29 05:41:54;;;;;;;2.40;1.80;;;10.40;1.00;;;;;;5119379;28;20477;-37
2022/12/29 05:44:20;;;;;;;2.50;1.87;;;10.40;1.00;;;;;;5119385;28;20410;-37
2022/12/29 05:46:45;;;;;;;3.03;2.10;;;10.40;1.00;;;;;;5118199;28;20278;-37
2022/12/29 05:49:11;;;;;;;2.90;2.30;;;10.40;1.00;;;;;;5118806;28;20168;-37
2022/12/29 05:51:37;;;;;;;4.90;2.03;;;10.40;1.00;;;;;;5117796;28;20269;-37
2022/12/29 05:54:03;;;;;;;4.67;2.00;;;10.40;1.00;;;;;;5118629;28;20244;-38
2022/12/29 05:56:28;;;;;;;2.43;1.97;;;10.40;1.00;;;;;;5116999;28;20198;-37
2022/12/29 05:58:54;;;;;;;3.17;2.10;;;10.40;1.00;;;;;;5118564;28;20550;-38
2022/12/29 06:01:19;;;;;;;5.60;1.90;;;10.40;1.00;;;;;;5118161;28;20522;-37
2022/12/29 06:03:45;;;;;;;1.93;1.53;;;10.40;1.00;;;;;;5116561;28;20168;-38
2022/12/29 06:06:11;;;;;;;2.03;1.63;;;10.40;1.00;;;;;;5117657;28;20175;-37
2022/12/29 06:08:36;;;;;;;2.30;1.63;;;10.40;1.00;;;;;;5118191;28;20194;-37
2022/12/29 06:11:02;;;;;;;3.07;1.50;;;10.40;1.00;;;;;;5116763;28;20198;-37
2022/12/29 06:13:28;;;;;;;3.97;2.30;;;10.40;1.00;;;;;;5117503;28;20184;-37
2022/12/29 06:15:54;;;;;;;3.00;1.90;;;10.40;1.00;;;;;;5116473;28;20661;-37
2022/12/29 06:18:20;;;;;;;2.03;1.70;;;10.50;1.00;;;;;;5113127;28;20187;-39
2022/12/29 06:20:46;;;;;;;2.37;1.70;;;10.50;99.90;;;;;;5114243;28;20468;-36
2022/12/29 06:23:14;;;;;;;2.30;1.50;;;10.50;99.90;;;;;;5112881;28;20759;-37
2022/12/29 06:25:40;;;;;;;3.27;2.00;;;10.50;99.90;;;;;;5114228;28;20171;-36
2022/12/29 06:28:06;;;;;;;2.00;1.60;;;10.50;99.90;;;;;;5099995;28;20887;-38
2022/12/29 06:30:32;;;;;;;6.97;3.03;;;10.50;99.90;;;;;;5094710;28;20516;-38
2022/12/29 06:32:58;;;;;;;78.30;24.97;;;11.10;99.90;;;;;;5095478;28;20441;-38
2022/12/29 06:35:24;;;;;;;46.63;13.10;;;11.80;99.90;;;;;;5095605;28;20740;-40
2022/12/29 06:37:50;;;;;;;36.87;10.07;;;12.30;99.90;;;;;;5095991;28;20441;-37
2022/12/29 06:40:16;;;;;;;20.13;6.87;;;12.80;1.00;;;;;;5096118;28;20318;-38
2022/12/29 06:42:41;;;;;;;20.00;6.23;;;13.20;99.90;;;;;;5077883;28;20567;-38
2022/12/29 06:45:07;;;;;;;17.20;3.90;;;13.60;99.90;;;;;;5095456;28;20418;-39
2022/12/29 06:47:34;;;;;;;11.33;3.70;;;13.90;99.90;;;;;;5112288;28;20198;-39
2022/12/29 06:50:00;;;;;;;7.80;2.77;;;14.10;99.90;;;;;;5116854;28;20420;-40
2022/12/29 06:52:26;;;;;;;5.47;3.13;;;14.20;99.90;;;;;;5118028;28;20421;-39
2022/12/29 06:54:51;;;;;;;3.77;1.73;;;14.20;99.90;;;;;;5115847;28;20248;-39
2022/12/29 06:57:17;;;;;;;3.23;1.93;;;13.90;1.00;;;;;;5116899;28;20429;-40
2022/12/29 06:59:43;;;;;;;2.80;1.83;;;13.50;99.90;;;;;;5116963;28;20454;-38
2022/12/29 07:02:10;;;;;;;2.30;1.73;;;13.10;99.90;;;;;;5116990;28;20549;-40
2022/12/29 07:04:36;;;;;;;3.10;1.80;;;12.70;99.90;;;;;;5115690;28;20399;-39
2022/12/29 07:07:02;;;;;;;2.53;1.60;;;12.40;99.90;;;;;;5114658;28;20833;-40
2022/12/29 07:09:27;;;;;;;2.83;1.63;;;12.10;99.90;;;;;;5114252;28;20172;-40
2022/12/29 07:11:53;;;;;;;3.93;1.80;;;11.90;99.90;;;;;;5116828;28;20223;-40
2022/12/29 07:14:18;;;;;;;1.83;1.30;;;11.70;99.90;;;;;;5096445;28;20199;-39
2022/12/29 07:16:44;;;;;;;3.33;1.97;;;11.50;99.90;;;;;;5100440;28;20467;-40
2022/12/29 07:19:10;;;;;;;2.03;1.63;;;11.40;99.90;;;;;;5099478;28;20275;-39
2022/12/29 07:21:35;;;;;;;2.20;1.80;;;11.30;99.90;;;;;;5098303;28;20207;-41
2022/12/29 07:24:01;;;;;;;2.40;1.43;;;11.20;99.90;;;;;;5097675;28;20188;-39
2022/12/29 07:26:28;;;;;;;2.67;1.87;;;11.10;1.00;;;;;;5098932;28;20313;-40
2022/12/29 07:28:54;;;;;;;4.23;1.73;;;11.00;1.00;;;;;;5095223;28;20196;-39
2022/12/29 07:31:22;;;;;;;5.43;1.60;;;11.00;1.00;;;;;;5095193;28;20414;-39
2022/12/29 07:33:47;;;;;;;2.37;1.57;;;11.00;1.00;;;;;;5097259;28;20407;-39
2022/12/29 07:36:14;;;;;;;2.23;1.40;;;10.90;1.00;;;;;;5097413;28;20414;-39
2022/12/29 07:38:40;;;;;;;2.00;1.50;;;10.90;1.00;;;;;;5096988;28;20246;-41
2022/12/29 07:41:07;;;;;;;2.80;1.77;;;10.90;1.00;;;;;;5098752;28;20634;-39
2022/12/29 07:43:33;;;;;;;3.00;1.87;;;10.90;1.00;;;;;;5112859;28;20437;-41
2022/12/29 07:45:58;;;;;;;2.67;1.77;;;10.90;1.00;;;;;;5118821;28;20452;-39
2022/12/29 07:48:24;;;;;;;3.80;2.00;;;10.90;1.00;;;;;;5118671;28;20229;-39
2022/12/29 07:50:50;;;;;;;2.93;1.73;;;10.90;1.00;;;;;;5080798;28;20185;-38
2022/12/29 07:53:16;;;;;;;2.10;1.80;;;10.90;1.00;;;;;;5078743;28;20444;-40
2022/12/29 07:55:41;;;;;;;2.17;1.60;;;11.00;1.00;;;;;;5079519;28;20705;-39
2022/12/29 07:58:07;;;;;;;1.77;1.63;;;10.90;1.00;;;;;;5097643;28;20185;-39
2022/12/29 08:00:33;;;;;;;3.30;2.13;;;10.90;1.00;;;;;;5098586;28;20204;-39
2022/12/29 08:02:59;;;;;;;2.00;1.80;;;10.90;1.00;;;;;;5099996;28;20914;-39
2022/12/29 08:05:24;;;;;;;1.90;1.40;;;10.90;1.00;;;;;;5098117;28;20455;-38
2022/12/29 08:07:50;;;;;;;2.50;1.90;;;11.00;1.00;;;;;;5099177;28;20485;-40
2022/12/29 08:10:16;;;;;;;2.03;1.77;;;11.00;1.00;;;;;;5101159;28;20171;-39
2022/12/29 08:12:43;;;;;;;2.70;1.97;;;11.00;1.00;;;;;;5119059;28;20225;-39
2022/12/29 08:15:10;;;;;;;2.13;1.70;;;11.00;1.00;;;;;;5117724;28;20496;-39
2022/12/29 08:17:36;;;;;;;2.70;2.20;;;11.00;1.00;;;;;;5118010;28;20417;-42
2022/12/29 08:20:02;;;;;;;2.70;1.63;;;11.00;1.00;;;;;;5117953;28;20433;-39
2022/12/29 08:22:28;;;;;;;2.23;2.03;;;11.00;1.00;;;;;;5117228;28;20253;-39
2022/12/29 08:24:53;;;;;;;3.57;2.20;;;11.00;1.00;;;;;;5118214;28;20422;-40
2022/12/29 08:27:19;;;;;;;2.13;1.60;;;11.10;1.00;;;;;;5118652;28;20430;-39
2022/12/29 08:29:45;;;;;;;3.57;1.70;;;11.10;1.00;;;;;;5118290;28;20240;-40
2022/12/29 08:32:11;;;;;;;2.33;2.10;;;11.10;1.00;;;;;;5119294;28;20210;-39
2022/12/29 08:34:36;;;;;;;2.27;1.50;;;11.10;1.00;;;;;;5100001;28;20198;-40
2022/12/29 08:37:02;;;;;;;2.97;2.00;;;11.20;1.00;;;;;;5120214;28;20524;-39
2022/12/29 08:39:28;;;;;;;2.57;1.80;;;11.20;1.00;;;;;;5118721;28;20195;-39
2022/12/29 08:41:54;;;;;;;1.90;1.70;;;11.20;1.00;;;;;;5116008;28;20481;-39
2022/12/29 08:44:20;;;;;;;3.57;2.23;;;11.30;1.00;;;;;;5115533;28;20194;-39
2022/12/29 08:46:45;;;;;;;3.20;1.70;;;11.30;1.00;;;;;;5113985;28;20176;-39
2022/12/29 08:49:11;;;;;;;3.63;1.83;;;11.30;1.00;;;;;;5113218;28;20539;-41
2022/12/29 08:51:36;;;;;;;2.27;1.43;;;11.30;1.00;;;;;;5113349;28;20303;-39
2022/12/29 08:54:03;;;;;;;2.57;1.97;;;11.40;1.00;;;;;;5115317;28;20557;-42
2022/12/29 08:56:29;;;;;;;2.23;1.70;;;11.50;1.00;;;;;;5116526;28;20187;-42
2022/12/29 08:58:54;;;;;;;4.07;1.90;;;11.50;1.00;;;;;;5115929;28;20700;-40
2022/12/29 09:01:20;;;;;;;2.20;1.63;;;11.50;1.00;;;;;;5117314;28;20465;-40
2022/12/29 09:03:47;;;;;;;3.57;2.20;;;11.60;1.00;;;;;;5099425;28;20437;-39
2022/12/29 09:06:13;;;;;;;3.10;1.70;;;11.60;1.00;;;;;;5116200;28;20879;-40
2022/12/29 09:08:39;;;;;;;2.67;1.70;;;11.70;1.00;;;;;;5118143;28;20409;-38
2022/12/29 09:11:10;;;;;;;3.10;2.07;;;11.70;99.90;;;;;;5118616;28;20866;-39
2022/12/29 09:13:36;;;;;;;2.73;1.53;;;11.70;99.90;;;;;;5117282;28;20180;-39
2022/12/29 09:16:03;;;;;;;5.80;2.00;;;11.80;99.90;;;;;;5118166;28;20878;-40
2022/12/29 09:18:28;;;;;;;2.40;1.70;;;11.80;99.90;;;;;;5117561;28;20175;-39
2022/12/29 09:21:02;;;;;;;3.70;1.87;;;11.80;99.90;;;;;;5114628;28;20511;-40
2022/12/29 09:23:28;;;;;;;2.20;1.70;;;11.90;99.90;;;;;;5116364;28;20183;-40
2022/12/29 09:25:54;;;;;;;3.93;1.90;;;12.00;99.90;;;;;;5117748;28;20429;-39
2022/12/29 09:28:20;;;;;;;2.60;1.70;;;12.10;99.90;;;;;;5117174;28;20328;-39
2022/12/29 09:30:46;;;;;;;3.10;1.40;;;12.20;99.90;;;;;;5100663;28;20878;-39
2022/12/29 09:33:11;;;;;;;2.87;1.50;;;12.30;99.90;;;;;;5117534;28;20410;-39
2022/12/29 09:35:37;;;;;;;1.80;1.37;;;12.40;99.90;;;;;;5114741;28;20206;-41
2022/12/29 09:38:03;;;;;;;3.30;1.33;;;12.60;99.90;;;;;;5115714;28;20199;-39
2022/12/29 09:40:31;;;;;;;6.30;1.67;;;12.80;99.90;;;;;;5116610;28;20199;-41
2022/12/29 09:43:21;;;;;;;2.77;1.80;;;13.10;32.80;;;;;;5115097;28;20172;-39
2022/12/29 09:46:03;;;;;;;3.27;2.10;;;13.20;16.00;;;;;;5112904;28;20416;-40
2022/12/29 09:48:34;;;;;;;2.80;1.80;;;13.30;11.10;;;;;;5115504;28;20405;-40
2022/12/29 09:51:03;;;;;;;3.07;1.43;;;13.40;1.00;;;;;;5097267;28;20433;-42
2022/12/29 09:53:37;;;;;;;1.70;1.53;;;13.40;1.00;;;;;;5098421;28;20491;-39
2022/12/29 09:56:05;;;;;;;2.40;1.90;;;13.40;1.00;;;;;;5100237;28;20425;-42
2022/12/29 09:59:13;;;;;;;2.53;1.70;;;13.50;1.00;;;;;;5098749;28;20409;-41
2022/12/29 10:01:46;;;;;;;2.90;1.40;;;13.70;1.00;;;;;;5088588;28;20476;-39
2022/12/29 10:04:12;;;;;;;1.93;1.50;;;13.80;1.00;;;;;;5096615;28;20833;-38
2022/12/29 10:06:51;;;;;;;2.03;1.60;;;13.80;1.00;;;;;;5096462;28;20437;-39
2022/12/29 10:09:38;;;;;;;2.00;1.63;;;13.70;1.00;;;;;;5095536;28;20169;-38
2022/12/29 10:12:16;;;;;;;2.60;1.53;;;13.60;1.00;;;;;;5107635;28;20628;-38
2022/12/29 10:14:45;;;;;;;5.57;1.87;;;13.50;1.00;;;;;;5116173;28;20410;-38
2022/12/29 10:17:27;;;;;;;3.23;1.77;;;13.60;1.00;;;;;;5116053;28;20830;-39
2022/12/29 10:20:14;;;;;;;2.63;1.87;;;13.70;1.00;;;;;;5098575;28;20890;-39
2022/12/29 10:23:01;;;;;;;2.50;1.80;;;14.00;1.00;;;;;;5117386;28;20418;-39
2022/12/29 10:25:30;;;;;;;2.10;1.60;;;14.30;1.00;;;;;;5116851;28;20394;-40
2022/12/29 10:27:59;;;;;;;3.77;1.90;;;14.50;1.00;;;;;;5116892;28;20402;-45
2022/12/29 10:30:24;;;;;;;2.27;1.70;;;14.60;1.00;;;;;;5095650;28;20469;-39
2022/12/29 10:33:02;;;;;;;2.33;2.00;;;14.80;1.00;;;;;;5097996;28;20405;-40
2022/12/29 10:35:38;;;;;;;4.23;2.00;;;15.00;1.00;;;;;;5096900;28;20203;-40
2022/12/29 10:38:26;;;;;;;4.70;2.00;;;15.30;1.00;;;;;;5115299;28;20496;-40
2022/12/29 10:41:07;;;;;;;3.83;2.00;;;16.20;1.00;;;;;;5112111;28;20553;-40
2022/12/29 10:43:47;;;;;;;3.63;1.60;;;17.40;1.00;;;;;;5115178;28;20408;-40
2022/12/29 10:46:16;;;;;;;2.20;1.67;;;18.70;1.00;;;;;;5114342;28;20429;-39
2022/12/29 10:48:45;;;;;;;3.50;1.87;;;19.70;1.00;;;;;;5098169;28;20406;-40
2022/12/29 10:51:11;;;;;;;2.90;1.53;;;19.80;1.00;;;;;;5114981;28;20850;-41
2022/12/29 10:53:42;;;;;;;2.20;1.90;;;19.30;1.00;;;;;;5094594;28;20713;-38
2022/12/29 10:56:23;;;;;;;2.60;1.40;;;18.70;1.00;;;;;;5093622;28;20868;-40
2022/12/29 10:58:50;;;;;;;2.80;1.57;;;18.20;1.00;;;;;;5111651;28;20848;-41
2022/12/29 11:01:17;;;;;;;3.00;1.80;;;17.70;1.00;;;;;;5113929;28;20915;-39
2022/12/29 11:04:03;;;;;;;3.00;1.83;;;17.30;1.00;;;;;;5096247;28;20538;-39
2022/12/29 11:06:29;;;;;;;3.10;2.00;;;17.00;1.00;;;;;;5096416;28;20484;-39
2022/12/29 11:09:16;;;;;;;2.50;1.77;;;16.70;1.00;;;;;;5113939;28;20446;-38
2022/12/29 11:11:42;;;;;;;3.30;2.13;;;16.30;1.00;;;;;;5093844;28;20209;-39
2022/12/29 11:14:16;;;;;;;2.43;1.70;;;16.10;1.00;;;;;;5110393;28;20785;-39
2022/12/29 11:16:43;;;;;;;4.90;1.73;;;16.00;1.00;;;;;;5094902;28;20179;-37
2022/12/29 11:19:23;;;;;;;2.30;1.73;;;16.10;1.00;;;;;;5113495;28;20413;-39
2022/12/29 11:21:49;;;;;;;3.37;2.00;;;16.10;1.00;;;;;;5109292;28;20771;-38
2022/12/29 11:24:32;;;;;;;2.17;1.50;;;16.00;1.00;;;;;;5110906;28;20681;-38
2022/12/29 11:27:20;;;;;;;3.53;1.80;;;15.80;1.00;;;;;;5091389;28;20171;-39
2022/12/29 11:29:46;;;;;;;2.63;1.70;;;15.50;1.00;;;;;;5099032;28;20945;-40
2022/12/29 11:32:23;;;;;;;2.20;1.80;;;15.40;1.00;;;;;;5073620;28;20438;-39
2022/12/29 11:34:49;;;;;;;3.07;1.73;;;15.30;1.00;;;;;;5072763;28;20422;-39
2022/12/29 11:37:18;;;;;;;1.87;1.67;;;15.60;1.00;;;;;;5096610;28;20437;-39
2022/12/29 11:39:50;;;;;;;2.10;1.60;;;16.10;1.00;;;;;;5097698;28;20680;-39
2022/12/29 11:42:24;;;;;;;4.53;1.70;;;17.40;1.00;;;;;;5115643;28;20469;-39
2022/12/29 11:44:51;;;;;;;2.77;1.80;;;18.60;1.00;;;;;;5094301;28;20855;-39
2022/12/29 11:47:36;;;;;;;1.93;1.63;;;19.00;1.00;;;;;;5113788;28;20497;-41
2022/12/29 11:50:04;;;;;;;2.17;1.77;;;18.70;1.00;;;;;;5112277;28;20636;-40
2022/12/29 11:52:34;;;;;;;2.83;1.30;;;18.10;1.00;;;;;;5094870;28;20643;-39
2022/12/29 11:55:03;;;;;;;1.97;1.20;;;17.50;1.00;;;;;;5092845;28;20769;-41
2022/12/29 11:57:29;;;;;;;2.47;1.27;;;16.80;1.00;;;;;;5111624;28;20430;-38
2022/12/29 11:59:56;;;;;;;2.37;1.40;;;16.30;1.00;;;;;;5096767;28;20417;-41
2022/12/29 12:02:33;;;;;;;2.67;1.50;;;15.80;1.00;;;;;;5095050;28;20827;-41
2022/12/29 12:05:20;;;;;;;2.40;1.30;;;15.40;1.00;;;;;;5097610;28;20691;-40
2022/12/29 12:07:52;;;;;;;2.63;1.60;;;15.10;1.00;;;;;;5097845;28;20425;-42
2022/12/29 12:10:29;;;;;;;2.20;1.97;;;14.80;1.00;;;;;;5098391;28;20689;-40
2022/12/29 12:13:21;;;;;;;2.20;1.70;;;14.70;1.00;;;;;;5100167;28;20440;-39
2022/12/29 12:16:00;;;;;;;2.70;1.60;;;14.40;1.00;;;;;;5099690;28;20432;-39
2022/12/29 12:18:34;;;;;;;2.07;1.67;;;14.30;1.00;;;;;;5117313;28;20505;-40
2022/12/29 12:21:39;;;;;;;2.33;1.40;;;14.10;1.00;;;;;;5115038;28;20515;-39
2022/12/29 12:24:45;;;;;;;1.70;1.53;;;14.10;10.70;;;;;;4993787;28;20446;-39
2022/12/29 12:27:28;;;;;;;3.80;1.40;;;14.10;83.60;;;;;;5097382;28;20532;-40
2022/12/29 12:30:04;;;;;;;3.47;2.00;;;13.90;99.90;;;;;;5098619;28;20681;-39
2022/12/29 12:32:54;;;;;;;2.03;1.83;;;13.90;99.90;;;;;;5116302;28;20862;-40
2022/12/29 12:35:48;;;;;;;3.13;1.80;;;13.70;1.00;;;;;;5116169;28;20428;-39
2022/12/29 12:38:56;;;;;;;2.70;1.60;;;13.60;1.00;;;;;;5098911;28;20417;-40
2022/12/29 12:41:43;;;;;;;2.90;2.10;;;13.60;99.90;;;;;;5068518;28;20465;-38
2022/12/29 12:44:20;;;;;;;5.30;2.30;;;13.40;99.90;;;;;;5117381;28;20417;-41
2022/12/29 12:47:20;;;;;;;2.80;1.80;;;13.40;1.00;;;;;;5116164;28;20409;-39
2022/12/29 12:50:40;;;;;;;2.70;2.10;;;13.40;1.00;;;;;;5067930;28;20422;-40
2022/12/29 12:53:30;;;;;;;1.80;1.40;;;13.60;1.00;;;;;;4998537;28;20426;-41
2022/12/29 12:56:30;;;;;;;3.10;1.87;;;14.10;99.90;;;;;;5112694;28;20684;-40
2022/12/29 12:59:26;;;;;;;2.93;1.97;;;14.80;1.00;;;;;;5116766;28;20685;-38
2022/12/29 13:02:20;;;;;;;6.73;2.20;;;16.00;99.90;;;;;;5116102;28;20911;-40
2022/12/29 13:05:10;;;;;;;2.60;2.00;;;18.10;2.00;;;;;;5117577;28;20409;-39
2022/12/29 13:08:09;;;;;;;3.67;2.37;;;19.70;1.00;;;;;;5116427;28;20474;-41
2022/12/29 13:10:53;;;;;;;2.80;1.97;;;20.30;1.00;;;;;;5115866;28;20421;-42
2022/12/29 13:13:34;;;;;;;3.47;1.83;;;20.20;1.00;;;;;;5100242;28;20749;-38
2022/12/29 13:16:21;;;;;;;3.50;1.77;;;20.20;1.00;;;;;;5101348;28;20421;-40
2022/12/29 13:18:49;;;;;;;2.03;1.83;;;20.80;1.00;;;;;;5101597;28;20462;-40
2022/12/29 13:21:20;;;;;;;2.57;1.67;;;21.30;1.00;;;;;;5115897;28;20972;-40
2022/12/29 13:24:06;;;;;;;2.07;1.70;;;21.20;1.00;;;;;;5097927;28;20433;-40
2022/12/29 13:26:46;;;;;;;2.07;1.50;;;20.60;1.00;;;;;;5099977;28;20568;-39
2022/12/29 13:29:23;;;;;;;4.00;2.00;;;19.80;1.00;;;;;;5099064;28;20410;-41
2022/12/29 13:32:02;;;;;;;2.90;1.80;;;19.10;1.00;;;;;;5098837;28;20453;-41
2022/12/29 13:34:28;;;;;;;2.10;1.40;;;18.50;1.00;;;;;;5097408;28;20444;-39
2022/12/29 13:36:56;;;;;;;5.60;2.33;;;17.80;1.00;;;;;;5114007;28;20591;-40
2022/12/29 13:39:41;;;;;;;1.80;1.37;;;17.30;1.00;;;;;;5112887;28;20179;-39
2022/12/29 13:42:07;;;;;;;3.40;1.80;;;17.00;1.00;;;;;;5095695;28;20820;-39
2022/12/29 13:44:55;;;;;;;2.43;2.00;;;16.60;1.00;;;;;;5096007;28;20417;-40
2022/12/29 13:47:34;;;;;;;3.40;2.07;;;16.40;1.00;;;;;;5114490;28;20409;-40
2022/12/29 13:50:02;;;;;;;4.37;2.60;;;16.20;1.00;;;;;;5097658;28;20428;-44
2022/12/29 13:52:44;;;;;;;2.20;2.00;;;16.00;1.00;;;;;;5097438;28;20433;-41